sensor_id;sensor_type;location;lat;lon;timestamp;temperature;humidity
52211;DHT22;38179;52.756;6.906;2023-12-29T00:01:57;9.40;99.90
52211;DHT22;38179;52.756;6.906;2023-12-29T00:04:28;9.40;99.90
52211;DHT22;38179;52.756;6.906;2023-12-29T00:06:54;9.30;99.90
52211;DHT22;38179;52.756;6.906;2023-12-29T00:09:20;9.30;99.90
52211;DHT22;38179;52.756;6.906;2023-12-29T00:11:49;9.30;99.90
52211;DHT22;38179;52.756;6.906;2023-12-29T00:14:15;9.30;99.90
52211;DHT22;38179;52.756;6.906;2023-12-29T00:16:41;9.30;99.90
52211;DHT22;38179;52.756;6.906;2023-12-29T00:19:07;9.30;99.90
52211;DHT22;38179;52.756;6.906;2023-12-29T00:21:33;9.30;99.90
52211;DHT22;38179;52.756;6.906;2023-12-29T00:23:59;9.30;99.90
52211;DHT22;38179;52.756;6.906;2023-12-29T00:26:24;9.30;99.90
52211;DHT22;38179;52.756;6.906;2023-12-29T00:28:51;9.30;99.90
52211;DHT22;38179;52.756;6.906;2023-12-29T00:31:16;9.30;99.90
52211;DHT22;38179;52.756;6.906;2023-12-29T00:33:43;9.30;99.90
52211;DHT22;38179;52.756;6.906;2023-12-29T00:36:17;9.20;99.90
52211;DHT22;38179;52.756;6.906;2023-12-29T00:38:44;9.20;99.90
52211;DHT22;38179;52.756;6.906;2023-12-29T00:41:10;9.10;99.90
52211;DHT22;38179;52.756;6.906;2023-12-29T00:43:36;9.10;99.90
52211;DHT22;38179;52.756;6.906;2023-12-29T00:46:03;9.10;99.90
52211;DHT22;38179;52.756;6.906;2023-12-29T00:48:29;9.00;99.90
52211;DHT22;38179;52.756;6.906;2023-12-29T00:50:55;9.00;99.90
52211;DHT22;38179;52.756;6.906;2023-12-29T00:53:21;9.00;99.90
52211;DHT22;38179;52.756;6.906;2023-12-29T00:55:47;9.00;99.90
52211;DHT22;38179;52.756;6.906;2023-12-29T00:58:13;9.00;99.90
52211;DHT22;38179;52.756;6.906;2023-12-29T01:00:39;9.00;99.90
52211;DHT22;38179;52.756;6.906;2023-12-29T01:03:05;9.00;99.90
52211;DHT22;38179;52.756;6.906;2023-12-29T01:05:31;9.00;99.90
52211;DHT22;38179;52.756;6.906;2023-12-29T01:07:57;9.00;99.90
52211;DHT22;38179;52.756;6.906;2023-12-29T01:10:23;9.00;99.90
52211;DHT22;38179;52.756;6.906;2023-12-29T01:12:49;9.00;99.90
52211;DHT22;38179;52.756;6.906;2023-12-29T01:15:15;9.00;99.90
52211;DHT22;38179;52.756;6.906;2023-12-29T01:17:41;9.00;99.90
52211;DHT22;38179;52.756;6.906;2023-12-29T01:20:07;9.00;99.90
52211;DHT22;38179;52.756;6.906;2023-12-29T01:22:33;8.90;99.90
52211;DHT22;38179;52.756;6.906;2023-12-29T01:25:00;8.90;99.90
52211;DHT22;38179;52.756;6.906;2023-12-29T01:27:26;8.90;99.90
52211;DHT22;38179;52.756;6.906;2023-12-29T01:29:53;8.90;99.90
52211;DHT22;38179;52.756;6.906;2023-12-29T01:32:19;8.90;99.90
52211;DHT22;38179;52.756;6.906;2023-12-29T01:34:45;9.00;99.90
52211;DHT22;38179;52.756;6.906;2023-12-29T01:37:11;8.90;99.90
52211;DHT22;38179;52.756;6.906;2023-12-29T01:39:37;9.00;99.90
52211;DHT22;38179;52.756;6.906;2023-12-29T01:42:03;9.00;99.90
52211;DHT22;38179;52.756;6.906;2023-12-29T01:44:29;9.00;99.90
52211;DHT22;38179;52.756;6.906;2023-12-29T01:46:59;9.00;99.90
52211;DHT22;38179;52.756;6.906;2023-12-29T01:49:25;9.10;99.90
52211;DHT22;38179;52.756;6.906;2023-12-29T01:51:54;9.10;99.90
52211;DHT22;38179;52.756;6.906;2023-12-29T01:54:22;9.10;99.90
52211;DHT22;38179;52.756;6.906;2023-12-29T01:56:50;9.10;99.90
52211;DHT22;38179;52.756;6.906;2023-12-29T01:59:17;9.20;99.90
52211;DHT22;38179;52.756;6.906;2023-12-29T02:01:44;9.20;99.90
52211;DHT22;38179;52.756;6.906;2023-12-29T02:04:12;9.20;99.90
52211;DHT22;38179;52.756;6.906;2023-12-29T02:06:39;9.20;99.90
52211;DHT22;38179;52.756;6.906;2023-12-29T02:09:05;9.20;99.90
52211;DHT22;38179;52.756;6.906;2023-12-29T02:11:32;9.20;99.90
52211;DHT22;38179;52.756;6.906;2023-12-29T02:14:00;9.10;99.90
52211;DHT22;38179;52.756;6.906;2023-12-29T02:19:25;9.10;99.90
52211;DHT22;38179;52.756;6.906;2023-12-29T02:21:57;9.10;99.90
52211;DHT22;38179;52.756;6.906;2023-12-29T02:24:22;9.10;99.90
52211;DHT22;38179;52.756;6.906;2023-12-29T02:26:52;9.10;99.90
52211;DHT22;38179;52.756;6.906;2023-12-29T02:29:21;9.20;99.90
52211;DHT22;38179;52.756;6.906;2023-12-29T02:31:53;9.20;99.90
52211;DHT22;38179;52.756;6.906;2023-12-29T02:34:22;9.20;99.90
52211;DHT22;38179;52.756;6.906;2023-12-29T02:36:50;9.20;99.90
52211;DHT22;38179;52.756;6.906;2023-12-29T02:39:16;9.20;99.90
52211;DHT22;38179;52.756;6.906;2023-12-29T02:41:42;9.20;99.90
52211;DHT22;38179;52.756;6.906;2023-12-29T02:44:09;9.30;99.90
52211;DHT22;38179;52.756;6.906;2023-12-29T02:46:35;9.30;99.90
52211;DHT22;38179;52.756;6.906;2023-12-29T02:49:00;9.30;99.90
52211;DHT22;38179;52.756;6.906;2023-12-29T02:51:26;9.30;99.90
52211;DHT22;38179;52.756;6.906;2023-12-29T02:53:52;9.40;99.90
52211;DHT22;38179;52.756;6.906;2023-12-29T02:56:18;9.30;99.90
52211;DHT22;38179;52.756;6.906;2023-12-29T02:58:44;9.40;99.90
52211;DHT22;38179;52.756;6.906;2023-12-29T03:01:11;9.40;99.90
52211;DHT22;38179;52.756;6.906;2023-12-29T03:03:37;9.50;99.90
52211;DHT22;38179;52.756;6.906;2023-12-29T03:06:06;9.50;99.90
52211;DHT22;38179;52.756;6.906;2023-12-29T03:08:32;9.60;99.90
52211;DHT22;38179;52.756;6.906;2023-12-29T03:10:58;9.60;99.90
52211;DHT22;38179;52.756;6.906;2023-12-29T03:13:24;9.60;99.90
52211;DHT22;38179;52.756;6.906;2023-12-29T03:15:50;9.70;99.90
52211;DHT22;38179;52.756;6.906;2023-12-29T03:18:16;9.70;99.90
52211;DHT22;38179;52.756;6.906;2023-12-29T03:20:42;9.70;99.90
52211;DHT22;38179;52.756;6.906;2023-12-29T03:23:08;9.80;99.90
52211;DHT22;38179;52.756;6.906;2023-12-29T03:25:34;9.80;99.90
52211;DHT22;38179;52.756;6.906;2023-12-29T03:27:59;9.80;99.90
52211;DHT22;38179;52.756;6.906;2023-12-29T03:30:26;9.80;99.90
52211;DHT22;38179;52.756;6.906;2023-12-29T03:32:52;9.70;99.90
52211;DHT22;38179;52.756;6.906;2023-12-29T03:35:18;9.70;99.90
52211;DHT22;38179;52.756;6.906;2023-12-29T03:37:43;9.70;99.90
52211;DHT22;38179;52.756;6.906;2023-12-29T03:40:09;9.60;99.90
52211;DHT22;38179;52.756;6.906;2023-12-29T03:42:35;9.60;99.90
52211;DHT22;38179;52.756;6.906;2023-12-29T03:45:01;9.60;99.90
52211;DHT22;38179;52.756;6.906;2023-12-29T03:47:27;9.60;99.90
52211;DHT22;38179;52.756;6.906;2023-12-29T03:49:53;9.60;99.90
52211;DHT22;38179;52.756;6.906;2023-12-29T03:52:19;9.60;99.90
52211;DHT22;38179;52.756;6.906;2023-12-29T03:54:45;9.50;99.90
52211;DHT22;38179;52.756;6.906;2023-12-29T03:57:11;9.40;99.90
52211;DHT22;38179;52.756;6.906;2023-12-29T03:59:37;9.40;99.90
52211;DHT22;38179;52.756;6.906;2023-12-29T04:02:03;9.30;99.90
52211;DHT22;38179;52.756;6.906;2023-12-29T04:04:29;9.30;99.90
52211;DHT22;38179;52.756;6.906;2023-12-29T04:06:55;9.30;99.90
52211;DHT22;38179;52.756;6.906;2023-12-29T04:09:21;9.40;99.90
52211;DHT22;38179;52.756;6.906;2023-12-29T04:11:47;9.40;99.90
52211;DHT22;38179;52.756;6.906;2023-12-29T04:14:13;9.40;99.90
52211;DHT22;38179;52.756;6.906;2023-12-29T04:16:39;9.40;99.90
52211;DHT22;38179;52.756;6.906;2023-12-29T04:19:05;9.50;99.90
52211;DHT22;38179;52.756;6.906;2023-12-29T04:21:31;9.60;99.90
52211;DHT22;38179;52.756;6.906;2023-12-29T04:23:57;9.60;99.90
52211;DHT22;38179;52.756;6.906;2023-12-29T04:26:22;9.50;99.90
52211;DHT22;38179;52.756;6.906;2023-12-29T04:28:48;9.40;99.90
52211;DHT22;38179;52.756;6.906;2023-12-29T04:31:14;9.40;99.90
52211;DHT22;38179;52.756;6.906;2023-12-29T04:33:40;9.30;99.90
52211;DHT22;38179;52.756;6.906;2023-12-29T04:36:06;9.30;99.90
52211;DHT22;38179;52.756;6.906;2023-12-29T04:38:32;9.30;99.90
52211;DHT22;38179;52.756;6.906;2023-12-29T04:40:58;9.20;99.90
52211;DHT22;38179;52.756;6.906;2023-12-29T04:43:24;9.20;99.90
52211;DHT22;38179;52.756;6.906;2023-12-29T04:45:50;9.30;99.90
52211;DHT22;38179;52.756;6.906;2023-12-29T04:48:15;9.30;99.90
52211;DHT22;38179;52.756;6.906;2023-12-29T04:50:41;9.30;99.90
52211;DHT22;38179;52.756;6.906;2023-12-29T04:53:07;9.30;99.90
52211;DHT22;38179;52.756;6.906;2023-12-29T04:55:33;9.30;99.90
52211;DHT22;38179;52.756;6.906;2023-12-29T04:57:59;9.30;99.90
52211;DHT22;38179;52.756;6.906;2023-12-29T05:00:25;9.30;99.90
52211;DHT22;38179;52.756;6.906;2023-12-29T05:02:51;9.40;99.90
52211;DHT22;38179;52.756;6.906;2023-12-29T05:05:17;9.30;99.90
52211;DHT22;38179;52.756;6.906;2023-12-29T05:07:42;9.30;99.90
52211;DHT22;38179;52.756;6.906;2023-12-29T05:10:08;9.30;99.90
52211;DHT22;38179;52.756;6.906;2023-12-29T05:12:34;9.40;99.90
52211;DHT22;38179;52.756;6.906;2023-12-29T05:15:00;9.30;99.90
52211;DHT22;38179;52.756;6.906;2023-12-29T05:17:26;9.40;99.90
52211;DHT22;38179;52.756;6.906;2023-12-29T05:19:52;9.30;99.90
52211;DHT22;38179;52.756;6.906;2023-12-29T05:22:17;9.30;99.90
52211;DHT22;38179;52.756;6.906;2023-12-29T05:24:43;9.30;99.90
52211;DHT22;38179;52.756;6.906;2023-12-29T05:27:11;9.40;99.90
52211;DHT22;38179;52.756;6.906;2023-12-29T05:29:37;9.30;99.90
52211;DHT22;38179;52.756;6.906;2023-12-29T05:32:04;9.30;99.90
52211;DHT22;38179;52.756;6.906;2023-12-29T05:34:30;9.30;99.90
52211;DHT22;38179;52.756;6.906;2023-12-29T05:36:56;9.30;99.90
52211;DHT22;38179;52.756;6.906;2023-12-29T05:39:21;9.30;99.90
52211;DHT22;38179;52.756;6.906;2023-12-29T05:41:47;9.30;99.90
52211;DHT22;38179;52.756;6.906;2023-12-29T05:44:13;9.30;99.90
52211;DHT22;38179;52.756;6.906;2023-12-29T05:46:39;9.30;99.90
52211;DHT22;38179;52.756;6.906;2023-12-29T05:49:05;9.30;99.90
52211;DHT22;38179;52.756;6.906;2023-12-29T05:51:31;9.30;99.90
52211;DHT22;38179;52.756;6.906;2023-12-29T05:53:57;9.30;99.90
52211;DHT22;38179;52.756;6.906;2023-12-29T05:56:23;9.20;99.90
52211;DHT22;38179;52.756;6.906;2023-12-29T05:58:49;9.30;99.90
52211;DHT22;38179;52.756;6.906;2023-12-29T06:01:15;9.30;99.90
52211;DHT22;38179;52.756;6.906;2023-12-29T06:03:41;9.30;99.90
52211;DHT22;38179;52.756;6.906;2023-12-29T06:06:06;9.30;99.90
52211;DHT22;38179;52.756;6.906;2023-12-29T06:08:33;9.20;99.90
52211;DHT22;38179;52.756;6.906;2023-12-29T06:10:59;9.30;99.90
52211;DHT22;38179;52.756;6.906;2023-12-29T06:13:25;9.30;99.90
52211;DHT22;38179;52.756;6.906;2023-12-29T06:15:51;9.30;99.90
52211;DHT22;38179;52.756;6.906;2023-12-29T06:18:17;9.30;99.90
52211;DHT22;38179;52.756;6.906;2023-12-29T06:20:42;9.30;99.90
52211;DHT22;38179;52.756;6.906;2023-12-29T06:23:08;9.30;99.90
52211;DHT22;38179;52.756;6.906;2023-12-29T06:25:34;9.30;99.90
52211;DHT22;38179;52.756;6.906;2023-12-29T06:28:00;9.30;99.90
52211;DHT22;38179;52.756;6.906;2023-12-29T06:30:26;9.30;99.90
52211;DHT22;38179;52.756;6.906;2023-12-29T06:32:52;9.30;99.90
52211;DHT22;38179;52.756;6.906;2023-12-29T06:35:18;9.20;99.90
52211;DHT22;38179;52.756;6.906;2023-12-29T06:37:44;9.30;99.90
52211;DHT22;38179;52.756;6.906;2023-12-29T06:40:10;9.20;99.90
52211;DHT22;38179;52.756;6.906;2023-12-29T06:42:36;9.20;99.90
52211;DHT22;38179;52.756;6.906;2023-12-29T06:45:03;9.20;99.90
52211;DHT22;38179;52.756;6.906;2023-12-29T06:47:29;9.20;99.90
52211;DHT22;38179;52.756;6.906;2023-12-29T06:49:55;9.20;99.90
52211;DHT22;38179;52.756;6.906;2023-12-29T06:52:21;9.20;99.90
52211;DHT22;38179;52.756;6.906;2023-12-29T06:54:47;9.20;99.90
52211;DHT22;38179;52.756;6.906;2023-12-29T07:00:10;9.20;99.90
52211;DHT22;38179;52.756;6.906;2023-12-29T07:02:39;9.20;99.90
52211;DHT22;38179;52.756;6.906;2023-12-29T07:05:08;9.20;99.90
52211;DHT22;38179;52.756;6.906;2023-12-29T07:07:35;9.20;99.90
52211;DHT22;38179;52.756;6.906;2023-12-29T07:10:03;9.20;99.90
52211;DHT22;38179;52.756;6.906;2023-12-29T07:12:29;9.20;99.90
52211;DHT22;38179;52.756;6.906;2023-12-29T07:14:55;9.20;99.90
52211;DHT22;38179;52.756;6.906;2023-12-29T07:17:21;9.20;99.90
52211;DHT22;38179;52.756;6.906;2023-12-29T07:19:47;9.10;99.90
52211;DHT22;38179;52.756;6.906;2023-12-29T07:22:13;9.10;99.90
52211;DHT22;38179;52.756;6.906;2023-12-29T07:24:39;9.10;99.90
52211;DHT22;38179;52.756;6.906;2023-12-29T07:27:06;9.10;99.90
52211;DHT22;38179;52.756;6.906;2023-12-29T07:29:33;9.10;99.90
52211;DHT22;38179;52.756;6.906;2023-12-29T07:31:59;9.10;99.90
52211;DHT22;38179;52.756;6.906;2023-12-29T07:34:25;9.10;99.90
52211;DHT22;38179;52.756;6.906;2023-12-29T07:36:51;9.10;99.90
52211;DHT22;38179;52.756;6.906;2023-12-29T07:39:18;9.10;99.90
52211;DHT22;38179;52.756;6.906;2023-12-29T07:41:44;9.10;99.90
52211;DHT22;38179;52.756;6.906;2023-12-29T07:44:11;9.10;99.90
52211;DHT22;38179;52.756;6.906;2023-12-29T07:46:40;9.10;99.90
52211;DHT22;38179;52.756;6.906;2023-12-29T07:49:06;9.10;99.90
52211;DHT22;38179;52.756;6.906;2023-12-29T07:51:32;9.10;99.90
52211;DHT22;38179;52.756;6.906;2023-12-29T07:53:58;9.10;99.90
52211;DHT22;38179;52.756;6.906;2023-12-29T07:56:24;9.00;99.90
52211;DHT22;38179;52.756;6.906;2023-12-29T07:58:50;9.00;99.90
52211;DHT22;38179;52.756;6.906;2023-12-29T08:01:16;9.00;99.90
52211;DHT22;38179;52.756;6.906;2023-12-29T08:03:43;9.00;99.90
52211;DHT22;38179;52.756;6.906;2023-12-29T08:06:09;9.00;99.90
52211;DHT22;38179;52.756;6.906;2023-12-29T08:08:35;9.00;99.90
52211;DHT22;38179;52.756;6.906;2023-12-29T08:11:00;9.00;99.90
52211;DHT22;38179;52.756;6.906;2023-12-29T08:13:27;9.00;99.90
52211;DHT22;38179;52.756;6.906;2023-12-29T08:15:53;9.00;99.90
52211;DHT22;38179;52.756;6.906;2023-12-29T08:18:19;9.10;99.90
52211;DHT22;38179;52.756;6.906;2023-12-29T08:20:44;9.10;99.90
52211;DHT22;38179;52.756;6.906;2023-12-29T08:23:11;9.10;99.90
52211;DHT22;38179;52.756;6.906;2023-12-29T08:25:37;9.10;99.90
52211;DHT22;38179;52.756;6.906;2023-12-29T08:28:03;9.20;99.90
52211;DHT22;38179;52.756;6.906;2023-12-29T08:30:29;9.10;99.90
52211;DHT22;38179;52.756;6.906;2023-12-29T08:32:54;9.10;99.90
52211;DHT22;38179;52.756;6.906;2023-12-29T08:35:20;9.00;99.90
52211;DHT22;38179;52.756;6.906;2023-12-29T08:37:47;9.00;99.90
52211;DHT22;38179;52.756;6.906;2023-12-29T08:40:13;9.00;99.90
52211;DHT22;38179;52.756;6.906;2023-12-29T08:42:39;9.00;99.90
52211;DHT22;38179;52.756;6.906;2023-12-29T08:45:05;9.00;99.90
52211;DHT22;38179;52.756;6.906;2023-12-29T08:47:31;9.00;99.90
52211;DHT22;38179;52.756;6.906;2023-12-29T08:49:57;9.00;99.90
52211;DHT22;38179;52.756;6.906;2023-12-29T08:52:22;9.00;99.90
52211;DHT22;38179;52.756;6.906;2023-12-29T08:54:48;9.00;99.90
52211;DHT22;38179;52.756;6.906;2023-12-29T08:57:14;9.00;99.90
52211;DHT22;38179;52.756;6.906;2023-12-29T08:59:40;9.00;99.90
52211;DHT22;38179;52.756;6.906;2023-12-29T09:02:06;9.10;99.90
52211;DHT22;38179;52.756;6.906;2023-12-29T09:04:32;9.10;99.90
52211;DHT22;38179;52.756;6.906;2023-12-29T09:06:58;9.20;99.90
52211;DHT22;38179;52.756;6.906;2023-12-29T09:09:23;9.20;99.90
52211;DHT22;38179;52.756;6.906;2023-12-29T09:11:49;9.30;99.90
52211;DHT22;38179;52.756;6.906;2023-12-29T09:14:15;9.20;99.90
52211;DHT22;38179;52.756;6.906;2023-12-29T09:16:41;9.30;99.90
52211;DHT22;38179;52.756;6.906;2023-12-29T09:19:08;9.30;99.90
52211;DHT22;38179;52.756;6.906;2023-12-29T09:21:34;9.40;99.90
52211;DHT22;38179;52.756;6.906;2023-12-29T09:24:00;9.40;99.90
52211;DHT22;38179;52.756;6.906;2023-12-29T09:26:26;9.50;99.90
52211;DHT22;38179;52.756;6.906;2023-12-29T09:28:51;9.50;99.90
52211;DHT22;38179;52.756;6.906;2023-12-29T09:31:17;9.40;99.90
52211;DHT22;38179;52.756;6.906;2023-12-29T09:33:43;9.50;99.90
52211;DHT22;38179;52.756;6.906;2023-12-29T09:36:09;9.50;99.90
52211;DHT22;38179;52.756;6.906;2023-12-29T09:38:35;9.50;99.90
52211;DHT22;38179;52.756;6.906;2023-12-29T09:41:05;9.50;99.90
52211;DHT22;38179;52.756;6.906;2023-12-29T09:43:34;9.50;99.90
52211;DHT22;38179;52.756;6.906;2023-12-29T09:46:02;9.50;99.90
52211;DHT22;38179;52.756;6.906;2023-12-29T09:48:29;9.40;99.90
52211;DHT22;38179;52.756;6.906;2023-12-29T09:50:57;9.40;99.90
52211;DHT22;38179;52.756;6.906;2023-12-29T09:53:24;9.30;99.90
52211;DHT22;38179;52.756;6.906;2023-12-29T09:55:51;9.30;99.90
52211;DHT22;38179;52.756;6.906;2023-12-29T09:58:21;9.30;99.90
52211;DHT22;38179;52.756;6.906;2023-12-29T10:00:49;9.30;99.90
52211;DHT22;38179;52.756;6.906;2023-12-29T10:03:16;9.30;99.90
52211;DHT22;38179;52.756;6.906;2023-12-29T10:05:42;9.30;99.90
52211;DHT22;38179;52.756;6.906;2023-12-29T10:08:09;9.30;99.90
52211;DHT22;38179;52.756;6.906;2023-12-29T10:10:36;9.30;99.90
52211;DHT22;38179;52.756;6.906;2023-12-29T10:13:04;9.30;99.90
52211;DHT22;38179;52.756;6.906;2023-12-29T10:15:46;9.20;99.90
52211;DHT22;38179;52.756;6.906;2023-12-29T10:18:32;9.20;99.90
52211;DHT22;38179;52.756;6.906;2023-12-29T10:21:24;9.10;99.90
52211;DHT22;38179;52.756;6.906;2023-12-29T10:24:03;9.10;99.90
52211;DHT22;38179;52.756;6.906;2023-12-29T10:26:31;9.00;99.90
52211;DHT22;38179;52.756;6.906;2023-12-29T10:28:58;9.00;99.90
52211;DHT22;38179;52.756;6.906;2023-12-29T10:31:24;8.80;99.90
52211;DHT22;38179;52.756;6.906;2023-12-29T10:33:51;8.70;99.90
52211;DHT22;38179;52.756;6.906;2023-12-29T10:36:17;8.50;99.90
52211;DHT22;38179;52.756;6.906;2023-12-29T10:38:43;8.30;99.90
52211;DHT22;38179;52.756;6.906;2023-12-29T10:41:17;8.00;99.90
52211;DHT22;38179;52.756;6.906;2023-12-29T10:43:46;7.80;99.90
52211;DHT22;38179;52.756;6.906;2023-12-29T10:46:17;7.70;99.90
52211;DHT22;38179;52.756;6.906;2023-12-29T10:48:45;7.50;99.90
52211;DHT22;38179;52.756;6.906;2023-12-29T10:51:11;7.40;99.90
52211;DHT22;38179;52.756;6.906;2023-12-29T10:53:38;7.30;99.90
52211;DHT22;38179;52.756;6.906;2023-12-29T10:56:04;7.30;99.90
52211;DHT22;38179;52.756;6.906;2023-12-29T10:58:35;7.20;99.90
52211;DHT22;38179;52.756;6.906;2023-12-29T11:01:14;7.20;99.90
52211;DHT22;38179;52.756;6.906;2023-12-29T11:03:40;7.20;99.90
52211;DHT22;38179;52.756;6.906;2023-12-29T11:06:06;7.10;99.90
52211;DHT22;38179;52.756;6.906;2023-12-29T11:08:35;7.20;99.90
52211;DHT22;38179;52.756;6.906;2023-12-29T11:11:01;7.30;99.90
52211;DHT22;38179;52.756;6.906;2023-12-29T11:13:29;7.40;99.90
52211;DHT22;38179;52.756;6.906;2023-12-29T11:15:56;7.60;99.90
52211;DHT22;38179;52.756;6.906;2023-12-29T11:18:22;7.70;99.90
52211;DHT22;38179;52.756;6.906;2023-12-29T11:20:49;7.90;99.90
52211;DHT22;38179;52.756;6.906;2023-12-29T11:23:15;8.00;99.90
52211;DHT22;38179;52.756;6.906;2023-12-29T11:25:44;8.20;99.90
52211;DHT22;38179;52.756;6.906;2023-12-29T11:28:14;8.30;99.90
52211;DHT22;38179;52.756;6.906;2023-12-29T11:30:40;8.40;99.90
52211;DHT22;38179;52.756;6.906;2023-12-29T11:33:30;8.40;99.90
52211;DHT22;38179;52.756;6.906;2023-12-29T11:36:04;8.50;99.90
52211;DHT22;38179;52.756;6.906;2023-12-29T11:44:27;8.60;99.90
52211;DHT22;38179;52.756;6.906;2023-12-29T11:46:53;8.60;99.90
52211;DHT22;38179;52.756;6.906;2023-12-29T11:49:20;8.60;99.90
52211;DHT22;38179;52.756;6.906;2023-12-29T11:51:49;8.60;99.90
52211;DHT22;38179;52.756;6.906;2023-12-29T11:54:26;8.70;99.90
52211;DHT22;38179;52.756;6.906;2023-12-29T11:56:55;8.70;99.90
52211;DHT22;38179;52.756;6.906;2023-12-29T11:59:21;8.70;99.90
52211;DHT22;38179;52.756;6.906;2023-12-29T12:01:53;8.80;99.90
52211;DHT22;38179;52.756;6.906;2023-12-29T12:12:56;9.10;99.90
52211;DHT22;38179;52.756;6.906;2023-12-29T12:17:53;9.20;99.90
52211;DHT22;38179;52.756;6.906;2023-12-29T12:20:19;9.20;99.90
52211;DHT22;38179;52.756;6.906;2023-12-29T12:22:47;9.30;99.90
52211;DHT22;38179;52.756;6.906;2023-12-29T12:25:16;9.30;99.90
52211;DHT22;38179;52.756;6.906;2023-12-29T12:27:42;9.30;99.90
52211;DHT22;38179;52.756;6.906;2023-12-29T12:30:09;9.40;99.90
52211;DHT22;38179;52.756;6.906;2023-12-29T12:32:35;9.40;99.90
52211;DHT22;38179;52.756;6.906;2023-12-29T12:35:02;9.40;99.90
52211;DHT22;38179;52.756;6.906;2023-12-29T12:37:29;9.40;99.90
52211;DHT22;38179;52.756;6.906;2023-12-29T12:39:55;9.40;99.90
52211;DHT22;38179;52.756;6.906;2023-12-29T12:42:23;9.50;99.90
52211;DHT22;38179;52.756;6.906;2023-12-29T12:44:55;9.50;99.90
52211;DHT22;38179;52.756;6.906;2023-12-29T12:47:33;9.40;99.90
52211;DHT22;38179;52.756;6.906;2023-12-29T12:50:00;9.50;99.90
52211;DHT22;38179;52.756;6.906;2023-12-29T12:52:33;9.50;99.90
52211;DHT22;38179;52.756;6.906;2023-12-29T12:55:00;9.40;99.90
52211;DHT22;38179;52.756;6.906;2023-12-29T12:57:27;9.50;99.90
52211;DHT22;38179;52.756;6.906;2023-12-29T12:59:53;9.50;99.90
52211;DHT22;38179;52.756;6.906;2023-12-29T13:02:20;9.50;99.90
52211;DHT22;38179;52.756;6.906;2023-12-29T13:04:47;9.50;99.90
52211;DHT22;38179;52.756;6.906;2023-12-29T13:07:17;9.50;99.90
52211;DHT22;38179;52.756;6.906;2023-12-29T13:09:45;9.50;99.90
52211;DHT22;38179;52.756;6.906;2023-12-29T13:12:12;9.40;99.90
52211;DHT22;38179;52.756;6.906;2023-12-29T13:14:39;9.40;99.90
52211;DHT22;38179;52.756;6.906;2023-12-29T13:17:12;9.40;99.90
52211;DHT22;38179;52.756;6.906;2023-12-29T13:19:39;9.40;99.90
52211;DHT22;38179;52.756;6.906;2023-12-29T13:22:08;9.40;99.90
52211;DHT22;38179;52.756;6.906;2023-12-29T13:24:35;9.40;99.90
52211;DHT22;38179;52.756;6.906;2023-12-29T13:27:07;9.40;99.90
52211;DHT22;38179;52.756;6.906;2023-12-29T13:29:36;9.40;99.90
52211;DHT22;38179;52.756;6.906;2023-12-29T13:32:23;9.40;99.90
52211;DHT22;38179;52.756;6.906;2023-12-29T13:35:18;9.40;99.90
52211;DHT22;38179;52.756;6.906;2023-12-29T13:37:51;9.40;99.90
52211;DHT22;38179;52.756;6.906;2023-12-29T13:40:25;9.40;99.90
52211;DHT22;38179;52.756;6.906;2023-12-29T13:42:57;9.40;99.90
52211;DHT22;38179;52.756;6.906;2023-12-29T13:45:24;9.40;99.90
52211;DHT22;38179;52.756;6.906;2023-12-29T13:47:51;9.40;99.90
52211;DHT22;38179;52.756;6.906;2023-12-29T13:50:18;9.40;99.90
52211;DHT22;38179;52.756;6.906;2023-12-29T13:52:44;9.40;99.90
52211;DHT22;38179;52.756;6.906;2023-12-29T13:55:10;9.40;99.90
52211;DHT22;38179;52.756;6.906;2023-12-29T13:57:36;9.30;99.90
52211;DHT22;38179;52.756;6.906;2023-12-29T14:00:21;9.30;99.90
52211;DHT22;38179;52.756;6.906;2023-12-29T14:10:32;9.30;99.90
52211;DHT22;38179;52.756;6.906;2023-12-29T14:13:11;9.30;99.90
52211;DHT22;38179;52.756;6.906;2023-12-29T14:15:39;9.30;99.90
52211;DHT22;38179;52.756;6.906;2023-12-29T14:18:52;9.30;99.90
52211;DHT22;38179;52.756;6.906;2023-12-29T14:21:24;9.30;99.90
52211;DHT22;38179;52.756;6.906;2023-12-29T14:26:38;9.30;99.90
52211;DHT22;38179;52.756;6.906;2023-12-29T14:29:07;9.30;99.90
52211;DHT22;38179;52.756;6.906;2023-12-29T14:31:38;9.20;99.90
52211;DHT22;38179;52.756;6.906;2023-12-29T14:34:05;9.20;99.90
52211;DHT22;38179;52.756;6.906;2023-12-29T14:36:32;9.20;99.90
52211;DHT22;38179;52.756;6.906;2023-12-29T14:38:58;9.10;99.90
52211;DHT22;38179;52.756;6.906;2023-12-29T14:41:24;9.10;99.90
52211;DHT22;38179;52.756;6.906;2023-12-29T14:43:51;9.10;99.90
52211;DHT22;38179;52.756;6.906;2023-12-29T14:46:17;9.10;99.90
52211;DHT22;38179;52.756;6.906;2023-12-29T14:48:43;9.20;99.90
52211;DHT22;38179;52.756;6.906;2023-12-29T14:51:09;9.20;99.90
52211;DHT22;38179;52.756;6.906;2023-12-29T14:53:35;9.10;99.90
52211;DHT22;38179;52.756;6.906;2023-12-29T14:56:01;9.10;99.90
52211;DHT22;38179;52.756;6.906;2023-12-29T14:58:26;9.10;99.90
52211;DHT22;38179;52.756;6.906;2023-12-29T15:00:53;9.10;99.90
52211;DHT22;38179;52.756;6.906;2023-12-29T15:03:19;9.10;99.90
52211;DHT22;38179;52.756;6.906;2023-12-29T15:05:46;9.10;99.90
52211;DHT22;38179;52.756;6.906;2023-12-29T15:08:13;9.00;99.90
52211;DHT22;38179;52.756;6.906;2023-12-29T15:10:39;9.00;99.90
52211;DHT22;38179;52.756;6.906;2023-12-29T15:13:04;9.00;99.90
52211;DHT22;38179;52.756;6.906;2023-12-29T15:15:33;9.00;99.90
52211;DHT22;38179;52.756;6.906;2023-12-29T15:18:00;9.00;99.90
52211;DHT22;38179;52.756;6.906;2023-12-29T15:20:25;8.90;99.90
52211;DHT22;38179;52.756;6.906;2023-12-29T15:22:51;8.90;99.90
52211;DHT22;38179;52.756;6.906;2023-12-29T15:25:21;8.90;99.90
52211;DHT22;38179;52.756;6.906;2023-12-29T15:27:49;8.90;99.90
52211;DHT22;38179;52.756;6.906;2023-12-29T15:30:15;8.80;99.90
52211;DHT22;38179;52.756;6.906;2023-12-29T15:32:40;8.80;99.90
52211;DHT22;38179;52.756;6.906;2023-12-29T15:35:06;8.70;99.90
52211;DHT22;38179;52.756;6.906;2023-12-29T15:37:33;8.80;99.90
52211;DHT22;38179;52.756;6.906;2023-12-29T15:39:58;8.80;99.90
52211;DHT22;38179;52.756;6.906;2023-12-29T15:42:32;8.80;99.90
52211;DHT22;38179;52.756;6.906;2023-12-29T15:44:58;8.70;99.90
52211;DHT22;38179;52.756;6.906;2023-12-29T15:47:24;8.70;99.90
52211;DHT22;38179;52.756;6.906;2023-12-29T15:49:50;8.70;99.90
52211;DHT22;38179;52.756;6.906;2023-12-29T15:52:15;8.70;99.90
52211;DHT22;38179;52.756;6.906;2023-12-29T15:54:41;8.70;99.90
52211;DHT22;38179;52.756;6.906;2023-12-29T15:57:07;8.70;99.90
52211;DHT22;38179;52.756;6.906;2023-12-29T15:59:34;8.70;99.90
52211;DHT22;38179;52.756;6.906;2023-12-29T16:02:00;8.70;99.90
52211;DHT22;38179;52.756;6.906;2023-12-29T16:04:26;8.70;99.90
52211;DHT22;38179;52.756;6.906;2023-12-29T16:06:56;8.70;99.90
52211;DHT22;38179;52.756;6.906;2023-12-29T16:09:22;8.60;99.90
52211;DHT22;38179;52.756;6.906;2023-12-29T16:11:48;8.60;99.90
52211;DHT22;38179;52.756;6.906;2023-12-29T16:14:18;8.60;99.90
52211;DHT22;38179;52.756;6.906;2023-12-29T16:16:44;8.50;99.90
52211;DHT22;38179;52.756;6.906;2023-12-29T16:19:10;8.50;99.90